createdAt,value
2023-03-06T00:01:11.451Z,4.63
2023-03-06T00:03:40.172Z,3.97
2023-03-06T00:06:09.115Z,4.10
2023-03-06T00:08:37.630Z,4.30
2023-03-06T00:11:06.481Z,4.55
2023-03-06T00:13:36.314Z,3.88
2023-03-06T00:16:05.552Z,4.55
2023-03-06T00:18:34.082Z,4.25
2023-03-06T00:21:02.553Z,4.13
2023-03-06T00:23:30.997Z,3.75
2023-03-06T00:25:59.666Z,4.50
2023-03-06T00:28:30.982Z,4.20
2023-03-06T00:31:01.578Z,4.25
2023-03-06T00:33:30.050Z,4.40
2023-03-06T00:35:58.586Z,4.38
2023-03-06T00:38:28.640Z,4.53
2023-03-06T00:40:57.047Z,4.30
2023-03-06T00:43:25.482Z,4.50
2023-03-06T00:45:53.976Z,4.23
2023-03-06T00:48:24.047Z,4.72
2023-03-06T00:50:52.471Z,4.45
2023-03-06T00:53:20.902Z,3.80
2023-03-06T00:55:49.379Z,4.88
2023-03-06T00:58:17.837Z,4.53
2023-03-06T01:00:46.689Z,4.68
2023-03-06T01:03:15.301Z,4.25
2023-03-06T01:05:45.422Z,4.43
2023-03-06T01:08:13.913Z,4.25
2023-03-06T01:10:42.570Z,4.00
2023-03-06T01:13:11.135Z,4.32
2023-03-06T01:15:39.859Z,4.43
2023-03-06T01:18:09.495Z,4.57
2023-03-06T01:20:38.314Z,4.50
2023-03-06T01:23:08.389Z,4.23
2023-03-06T01:25:37.019Z,3.92
2023-03-06T01:28:05.832Z,4.38
2023-03-06T01:30:34.299Z,4.03
2023-03-06T01:33:02.750Z,4.30
2023-03-06T01:35:31.308Z,4.30
2023-03-06T01:37:59.839Z,4.63
2023-03-06T01:40:32.753Z,4.45
2023-03-06T01:43:10.743Z,4.32
2023-03-06T01:46:24.971Z,4.47
2023-03-06T01:48:57.767Z,4.40
2023-03-06T01:51:30.343Z,4.30
2023-03-06T01:54:01.117Z,4.70
2023-03-06T01:56:31.077Z,3.70
2023-03-06T01:58:59.986Z,4.60
2023-03-06T02:01:29.004Z,4.13
2023-03-06T02:03:57.758Z,4.03
2023-03-06T02:06:26.458Z,4.43
2023-03-06T02:08:55.717Z,3.75
2023-03-06T02:11:25.875Z,4.32
2023-03-06T02:13:56.386Z,3.93
2023-03-06T02:16:28.405Z,4.18
2023-03-06T02:18:57.960Z,4.60
2023-03-06T02:21:30.448Z,4.22
2023-03-06T02:24:25.704Z,4.40
2023-03-06T02:26:57.171Z,4.10
2023-03-06T02:29:29.796Z,4.47
2023-03-06T02:31:58.606Z,4.07
2023-03-06T02:35:00.427Z,4.30
2023-03-06T02:37:30.595Z,4.43
2023-03-06T02:40:09.484Z,4.30
2023-03-06T02:42:39.654Z,3.90
2023-03-06T02:45:11.848Z,4.40
2023-03-06T02:47:40.489Z,4.32
2023-03-06T02:50:10.474Z,4.05
2023-03-06T02:52:38.918Z,4.60
2023-03-06T02:55:09.052Z,4.63
2023-03-06T02:57:38.851Z,4.90
2023-03-06T03:00:09.266Z,5.40
2023-03-06T03:02:38.093Z,4.25
2023-03-06T03:05:07.853Z,4.33
2023-03-06T03:07:36.516Z,4.45
2023-03-06T03:10:08.645Z,5.05
2023-03-06T03:12:38.553Z,4.53
2023-03-06T03:15:09.715Z,5.10
2023-03-06T03:17:38.824Z,4.70
2023-03-06T03:20:11.770Z,4.82
2023-03-06T03:22:40.851Z,4.90
2023-03-06T03:25:10.654Z,5.25
2023-03-06T03:27:40.450Z,4.85
2023-03-06T03:30:11.203Z,4.80
2023-03-06T03:32:39.748Z,5.10
2023-03-06T03:35:10.439Z,5.30
2023-03-06T03:37:39.673Z,4.70
2023-03-06T03:40:10.957Z,6.40
2023-03-06T03:42:41.016Z,5.00
2023-03-06T03:45:10.604Z,7.30
2023-03-06T03:47:39.103Z,7.75
2023-03-06T03:50:09.317Z,6.00
2023-03-06T03:52:37.996Z,5.40
2023-03-06T03:55:08.155Z,5.20
2023-03-06T03:57:36.602Z,5.00
2023-03-06T04:00:08.205Z,5.05
2023-03-06T04:02:36.871Z,4.75
2023-03-06T04:05:06.214Z,4.78
2023-03-06T04:07:34.690Z,4.77
2023-03-06T04:10:03.150Z,5.07
2023-03-06T04:12:31.630Z,5.28
2023-03-06T04:15:00.159Z,4.90
2023-03-06T04:17:29.985Z,4.72
2023-03-06T04:19:58.616Z,4.70
2023-03-06T04:22:27.108Z,4.90
2023-03-06T04:24:55.660Z,5.13
2023-03-06T04:27:24.143Z,5.35
2023-03-06T04:29:56.244Z,5.00
2023-03-06T04:32:25.122Z,4.73
2023-03-06T04:34:54.996Z,4.45
2023-03-06T04:37:26.724Z,4.57
2023-03-06T04:39:55.643Z,4.60
2023-03-06T04:42:24.951Z,4.90
2023-03-06T04:44:53.800Z,5.00
2023-03-06T04:47:22.285Z,4.88
2023-03-06T04:49:51.108Z,5.35
2023-03-06T04:52:20.927Z,5.82
2023-03-06T04:54:49.396Z,6.28
2023-03-06T04:57:17.866Z,5.63
2023-03-06T04:59:46.321Z,6.45
2023-03-06T05:02:14.903Z,6.20
2023-03-06T05:04:43.566Z,5.47
2023-03-06T05:07:12.457Z,5.80
2023-03-06T05:09:42.241Z,6.00
2023-03-06T05:12:10.695Z,6.05
2023-03-06T05:14:39.379Z,6.75
2023-03-06T05:17:08.177Z,6.20
2023-03-06T05:19:36.663Z,9.50
2023-03-06T05:22:05.231Z,6.83
2023-03-06T05:24:33.708Z,7.28
2023-03-06T05:27:03.760Z,7.10
2023-03-06T05:29:32.512Z,7.72
2023-03-06T05:32:01.243Z,6.80
2023-03-06T05:34:29.874Z,7.13
2023-03-06T05:36:58.566Z,6.30
2023-03-06T05:39:29.559Z,7.22
2023-03-06T05:41:58.214Z,6.60
2023-03-06T05:44:33.443Z,6.70
2023-03-06T05:47:02.935Z,6.53
2023-03-06T05:49:35.238Z,6.65
2023-03-06T05:52:06.455Z,7.63
2023-03-06T05:54:37.902Z,6.85
2023-03-06T05:57:07.134Z,7.28
2023-03-06T05:59:37.012Z,7.10
2023-03-06T06:02:05.663Z,7.55
2023-03-06T06:04:34.270Z,7.93
2023-03-06T06:07:03.076Z,6.88
2023-03-06T06:09:31.762Z,6.68
2023-03-06T06:12:03.696Z,7.80
2023-03-06T06:14:36.285Z,9.15
2023-03-06T06:17:05.631Z,9.82
2023-03-06T06:19:34.352Z,7.60
2023-03-06T06:22:03.878Z,8.10
2023-03-06T06:24:33.674Z,7.97
2023-03-06T06:27:03.969Z,8.48
2023-03-06T06:29:33.033Z,6.85
2023-03-06T06:32:03.077Z,6.90
2023-03-06T06:34:31.991Z,7.72
2023-03-06T06:37:00.441Z,7.47
2023-03-06T06:39:29.047Z,9.35
2023-03-06T06:42:20.188Z,8.98
2023-03-06T06:44:46.071Z,7.82
2023-03-06T06:47:25.166Z,8.38
2023-03-06T06:49:55.411Z,8.03
2023-03-06T06:52:25.103Z,7.60
2023-03-06T06:54:54.195Z,9.13
2023-03-06T06:57:22.874Z,9.02
2023-03-06T06:59:53.387Z,8.68
2023-03-06T07:02:24.340Z,9.13
2023-03-06T07:05:03.774Z,8.07
2023-03-06T07:07:35.432Z,9.40
2023-03-06T07:10:05.577Z,7.53
2023-03-06T07:12:35.209Z,7.57
2023-03-06T07:15:04.926Z,8.00
2023-03-06T07:17:34.924Z,7.72
2023-03-06T07:20:05.392Z,9.13
2023-03-06T07:22:41.542Z,8.88
2023-03-06T07:28:04.292Z,8.37
2023-03-06T07:30:34.866Z,9.10
2023-03-06T07:33:04.756Z,8.88
2023-03-06T07:35:34.295Z,9.27
2023-03-06T07:38:03.341Z,8.88
2023-03-06T07:40:31.818Z,8.40
2023-03-06T07:43:16.907Z,9.57
2023-03-06T07:45:48.051Z,10.57
2023-03-06T07:48:17.857Z,11.02
2023-03-06T07:50:50.338Z,11.23
2023-03-06T07:53:18.764Z,9.80
2023-03-06T07:55:47.169Z,12.45
2023-03-06T07:58:16.222Z,12.68
2023-03-06T08:00:44.771Z,13.60
2023-03-06T08:03:14.873Z,14.27
2023-03-06T08:05:45.541Z,11.87
2023-03-06T08:08:14.179Z,10.35
2023-03-06T08:10:42.594Z,14.95
2023-03-06T08:13:11.045Z,11.85
2023-03-06T08:15:40.545Z,10.95
2023-03-06T08:18:08.966Z,9.90
2023-03-06T08:20:37.911Z,10.63
2023-03-06T08:23:07.719Z,11.73
2023-03-06T08:25:36.169Z,11.10
2023-03-06T08:28:04.705Z,11.00
2023-03-06T08:30:33.521Z,9.63
2023-03-06T08:33:02.132Z,10.02
2023-03-06T08:35:30.587Z,9.73
2023-03-06T08:37:59.001Z,14.23
2023-03-06T08:40:31.996Z,9.77
2023-03-06T08:43:00.440Z,9.77
2023-03-06T08:45:28.869Z,9.30
2023-03-06T08:47:57.423Z,14.73
2023-03-06T08:50:25.826Z,12.15
2023-03-06T08:52:54.257Z,10.30
2023-03-06T08:55:22.766Z,9.47
2023-03-06T08:57:52.605Z,9.73
2023-03-06T09:00:21.656Z,10.48
2023-03-06T09:02:50.077Z,9.48
2023-03-06T09:05:18.627Z,22.17
2023-03-06T09:07:47.040Z,12.17
2023-03-06T09:10:19.024Z,9.60
2023-03-06T09:12:50.905Z,9.13
2023-03-06T09:15:24.306Z,10.23
2023-03-06T09:17:54.225Z,12.45
2023-03-06T09:20:23.539Z,9.53
2023-03-06T09:22:51.980Z,8.63
2023-03-06T09:25:23.339Z,9.30
2023-03-06T09:28:08.612Z,9.38
2023-03-06T09:30:41.785Z,8.13
2023-03-06T09:33:10.202Z,8.37
2023-03-06T09:35:44.623Z,8.38
2023-03-06T09:38:13.143Z,9.13
2023-03-06T09:41:01.207Z,8.32
2023-03-06T09:43:35.431Z,8.07
2023-03-06T09:46:20.224Z,7.57
2023-03-06T09:49:10.273Z,6.68
2023-03-06T09:51:58.616Z,8.10
2023-03-06T09:54:37.209Z,7.43
2023-03-06T09:57:09.949Z,6.78
2023-03-06T09:59:50.222Z,6.93
2023-03-06T10:02:29.269Z,9.45
2023-03-06T10:05:04.152Z,7.70
2023-03-06T10:07:45.270Z,6.50
2023-03-06T10:10:22.196Z,9.45
2023-03-06T10:13:03.978Z,7.27
2023-03-06T10:15:36.238Z,5.50
2023-03-06T10:18:06.872Z,7.32
2023-03-06T10:20:42.681Z,6.03
2023-03-06T10:23:25.013Z,6.53
2023-03-06T10:26:02.251Z,7.10
2023-03-06T10:28:35.527Z,5.50
2023-03-06T10:31:12.263Z,5.72
2023-03-06T10:33:55.907Z,6.18
2023-03-06T10:36:27.235Z,4.63
2023-03-06T10:38:58.034Z,7.13
2023-03-06T10:41:29.733Z,5.90
2023-03-06T10:44:23.498Z,5.70
2023-03-06T10:46:55.356Z,4.63
2023-03-06T10:49:36.965Z,5.10
2023-03-06T10:52:20.385Z,4.43
2023-03-06T10:54:49.397Z,4.60
2023-03-06T10:57:27.461Z,5.40
2023-03-06T10:59:58.205Z,6.97
2023-03-06T11:02:31.760Z,5.70
2023-03-06T11:05:03.682Z,13.60
2023-03-06T11:07:34.318Z,6.72
2023-03-06T11:10:12.578Z,5.50
2023-03-06T11:12:43.788Z,6.13
2023-03-06T11:15:22.736Z,5.10
2023-03-06T11:17:59.141Z,5.07
2023-03-06T11:20:48.499Z,8.20
2023-03-06T11:23:21.619Z,6.43
2023-03-06T11:25:56.450Z,5.20
2023-03-06T11:28:30.710Z,4.70
2023-03-06T11:31:05.195Z,4.70
2023-03-06T11:33:42.576Z,4.93
2023-03-06T11:36:17.539Z,4.80
2023-03-06T11:38:50.886Z,4.60
2023-03-06T11:41:33.675Z,4.55
2023-03-06T11:44:13.878Z,4.50
2023-03-06T11:46:45.748Z,5.28
2023-03-06T11:49:24.837Z,4.18
2023-03-06T11:51:57.715Z,4.50
2023-03-06T11:54:26.503Z,5.00
2023-03-06T11:56:59.706Z,4.67
2023-03-06T11:59:48.615Z,4.63
2023-03-06T12:02:34.637Z,5.40
2023-03-06T12:05:28.253Z,4.22
2023-03-06T12:08:16.205Z,5.00
2023-03-06T12:10:51.835Z,5.23
2023-03-06T12:13:37.021Z,5.57
2023-03-06T12:16:27.025Z,4.68
2023-03-06T12:19:08.702Z,4.32
2023-03-06T12:21:49.959Z,5.68
2023-03-06T12:24:50.234Z,4.83
2023-03-06T12:27:25.962Z,5.03
2023-03-06T12:30:17.171Z,6.18
2023-03-06T12:32:54.033Z,6.18
2023-03-06T12:35:58.218Z,6.13
2023-03-06T12:38:48.812Z,4.93
2023-03-06T12:41:33.869Z,4.40
2023-03-06T12:44:49.469Z,4.45
2023-03-06T12:47:23.110Z,4.30
2023-03-06T12:49:57.578Z,5.35
2023-03-06T12:52:30.686Z,5.33
2023-03-06T12:55:02.537Z,4.72
2023-03-06T12:57:32.321Z,8.30
2023-03-06T13:00:00.844Z,4.90
2023-03-06T13:02:58.409Z,4.60
2023-03-06T13:05:59.034Z,6.20
2023-03-06T13:09:12.557Z,5.30
2023-03-06T13:12:16.901Z,7.68
2023-03-06T13:15:01.555Z,4.32
2023-03-06T13:17:40.660Z,4.68
2023-03-06T13:20:43.053Z,5.17
2023-03-06T13:23:52.248Z,5.85
2023-03-06T13:27:00.173Z,4.90
2023-03-06T13:30:21.923Z,5.55
2023-03-06T13:32:52.786Z,7.03
2023-03-06T13:35:56.000Z,7.60
2023-03-06T13:38:38.343Z,5.90
2023-03-06T13:41:37.665Z,6.50
2023-03-06T13:44:51.095Z,4.90
2023-03-06T13:48:06.773Z,6.30
2023-03-06T13:50:40.759Z,5.50
2023-03-06T13:54:14.382Z,5.85
2023-03-06T13:57:17.485Z,7.20
2023-03-06T14:00:35.923Z,7.28
2023-03-06T14:03:57.562Z,6.40
2023-03-06T14:06:54.086Z,5.90
2023-03-06T14:09:30.148Z,5.57
2023-03-06T14:12:06.813Z,6.20
2023-03-06T14:14:43.935Z,7.47
2023-03-06T14:17:25.663Z,11.35
2023-03-06T14:19:57.567Z,6.90
2023-03-06T14:22:26.895Z,10.70
2023-03-06T14:25:06.128Z,7.07
2023-03-06T14:27:45.448Z,5.25
2023-03-06T14:30:17.205Z,11.88
2023-03-06T14:32:46.306Z,10.40
2023-03-06T14:35:29.619Z,5.68
2023-03-06T14:38:02.376Z,5.35
2023-03-06T14:40:35.999Z,5.85
2023-03-06T14:43:21.765Z,6.47
2023-03-06T14:45:56.272Z,6.40
2023-03-06T14:48:27.028Z,5.40
2023-03-06T14:50:58.325Z,7.10
2023-03-06T14:53:31.230Z,7.10
2023-03-06T14:56:05.050Z,4.85
2023-03-06T14:58:39.547Z,5.70
2023-03-06T15:01:11.288Z,5.50
2023-03-06T15:03:46.860Z,5.60
2023-03-06T15:06:21.633Z,5.70
2023-03-06T15:08:58.840Z,5.57
2023-03-06T15:11:27.392Z,5.20
2023-03-06T15:14:03.789Z,4.90
2023-03-06T15:16:32.890Z,6.40
2023-03-06T15:19:03.561Z,7.18
2023-03-06T15:21:37.572Z,6.35
2023-03-06T15:24:32.764Z,5.27
2023-03-06T15:27:04.361Z,6.10
2023-03-06T15:29:33.108Z,7.57
2023-03-06T15:32:32.268Z,8.45
2023-03-06T15:35:27.334Z,5.85
2023-03-06T15:37:57.657Z,6.50
2023-03-06T15:40:28.867Z,5.10
2023-03-06T15:42:58.153Z,5.60
2023-03-06T15:45:29.656Z,5.22
2023-03-06T15:47:58.084Z,5.68
2023-03-06T15:50:28.812Z,5.30
2023-03-06T15:52:58.694Z,6.07
2023-03-06T15:55:27.567Z,6.35
2023-03-06T15:57:59.741Z,5.90
2023-03-06T16:00:30.899Z,5.97
2023-03-06T16:03:00.199Z,5.37
2023-03-06T16:05:29.910Z,5.50
2023-03-06T16:08:00.110Z,16.27
2023-03-06T16:10:31.874Z,15.82
2023-03-06T16:13:04.504Z,10.57
2023-03-06T16:15:38.788Z,14.27
2023-03-06T16:18:07.807Z,7.40
2023-03-06T16:20:36.623Z,9.85
2023-03-06T16:23:10.291Z,7.35
2023-03-06T16:25:41.020Z,8.32
2023-03-06T16:28:15.527Z,8.77
2023-03-06T16:30:46.060Z,7.30
2023-03-06T16:33:15.368Z,7.03
2023-03-06T16:35:46.827Z,7.47
2023-03-06T16:38:16.779Z,7.35
2023-03-06T16:40:45.232Z,6.30
2023-03-06T16:43:16.166Z,6.03
2023-03-06T16:45:45.093Z,6.75
2023-03-06T16:48:20.864Z,6.03
2023-03-06T16:50:49.372Z,6.53
2023-03-06T16:53:19.910Z,5.73
2023-03-06T16:55:48.583Z,6.13
2023-03-06T16:58:17.242Z,6.70
2023-03-06T17:00:45.685Z,6.20
2023-03-06T17:03:14.098Z,5.60
2023-03-06T17:05:44.068Z,5.83
2023-03-06T17:08:12.847Z,5.28
2023-03-06T17:10:44.081Z,5.75
2023-03-06T17:13:12.553Z,5.30
2023-03-06T17:15:41.330Z,5.30
2023-03-06T17:18:09.754Z,5.47
2023-03-06T17:20:38.573Z,18.35
2023-03-06T17:23:06.969Z,7.68
2023-03-06T17:25:35.417Z,5.63
2023-03-06T17:28:05.291Z,6.53
2023-03-06T17:30:33.705Z,8.07
2023-03-06T17:33:02.742Z,6.38
2023-03-06T17:35:31.439Z,7.20
2023-03-06T17:38:00.142Z,7.55
2023-03-06T17:40:28.657Z,6.63
2023-03-06T17:42:57.257Z,7.90
2023-03-06T17:45:29.039Z,9.23
2023-03-06T17:47:57.812Z,7.00
2023-03-06T17:50:26.285Z,15.70
2023-03-06T17:52:54.722Z,6.25
2023-03-06T17:55:23.202Z,6.70
2023-03-06T17:57:53.400Z,7.90
2023-03-06T18:00:23.790Z,8.40
2023-03-06T18:02:53.876Z,6.53
2023-03-06T18:05:22.579Z,5.45
2023-03-06T18:07:51.010Z,5.90
2023-03-06T18:10:19.568Z,6.90
2023-03-06T18:12:48.224Z,6.38
2023-03-06T18:15:17.311Z,5.65
2023-03-06T18:17:46.440Z,6.60
2023-03-06T18:20:16.337Z,6.73
2023-03-06T18:22:44.785Z,5.82
2023-03-06T18:25:13.226Z,6.25
2023-03-06T18:27:41.637Z,6.63
2023-03-06T18:30:12.055Z,6.72
2023-03-06T18:32:40.555Z,5.90
2023-03-06T18:35:10.622Z,6.18
2023-03-06T18:37:40.435Z,5.90
2023-03-06T18:40:11.064Z,6.60
2023-03-06T18:42:39.483Z,6.63
2023-03-06T18:45:09.754Z,6.27
2023-03-06T18:47:38.178Z,6.60
2023-03-06T18:50:08.125Z,6.22
2023-03-06T18:52:36.692Z,6.18
2023-03-06T18:55:07.640Z,6.75
2023-03-06T18:57:36.269Z,6.07
2023-03-06T19:00:05.887Z,5.97
2023-03-06T19:02:34.593Z,6.22
2023-03-06T19:05:03.066Z,5.93
2023-03-06T19:07:31.697Z,6.10
2023-03-06T19:10:00.120Z,7.80
2023-03-06T19:12:29.952Z,7.07
2023-03-06T19:15:01.462Z,7.28
2023-03-06T19:17:31.447Z,5.40
2023-03-06T19:19:59.877Z,6.25
2023-03-06T19:22:28.299Z,5.80
2023-03-06T19:24:56.739Z,7.78
2023-03-06T19:27:25.387Z,6.57
2023-03-06T19:29:55.167Z,14.07
2023-03-06T19:32:23.747Z,8.57
2023-03-06T19:34:52.611Z,6.33
2023-03-06T19:37:21.103Z,7.38
2023-03-06T19:39:49.751Z,5.90
2023-03-06T19:42:18.436Z,5.82
2023-03-06T19:47:37.541Z,5.53
2023-03-06T19:50:07.232Z,5.95
2023-03-06T19:52:39.039Z,5.55
2023-03-06T19:55:09.690Z,6.15
2023-03-06T19:57:38.161Z,6.18
2023-03-06T20:00:08.124Z,6.63
2023-03-06T20:02:38.183Z,5.75
2023-03-06T20:05:09.384Z,6.72
2023-03-06T20:07:38.143Z,9.10
2023-03-06T20:10:07.472Z,9.55
2023-03-06T20:12:36.649Z,8.37
2023-03-06T20:15:06.157Z,6.70
2023-03-06T20:17:35.587Z,6.53
2023-03-06T20:20:07.118Z,6.53
2023-03-06T20:22:35.567Z,6.35
2023-03-06T20:25:04.156Z,6.03
2023-03-06T20:27:32.797Z,5.97
2023-03-06T20:30:01.490Z,6.03
2023-03-06T20:32:30.215Z,8.75
2023-03-06T20:34:58.674Z,6.45
2023-03-06T20:37:28.755Z,6.90
2023-03-06T20:39:57.429Z,6.05
2023-03-06T20:42:25.841Z,6.53
2023-03-06T20:44:54.504Z,6.47
2023-03-06T20:47:22.942Z,6.10
2023-03-06T20:49:51.608Z,6.00
2023-03-06T20:52:20.059Z,6.50
2023-03-06T20:54:50.089Z,6.90
2023-03-06T20:57:18.532Z,5.95
2023-03-06T20:59:47.217Z,6.70
2023-03-06T21:02:15.946Z,7.30
2023-03-06T21:04:44.768Z,7.40
2023-03-06T21:07:13.224Z,7.90
2023-03-06T21:09:41.659Z,7.78
2023-03-06T21:12:11.468Z,7.03
2023-03-06T21:14:40.151Z,7.47
2023-03-06T21:17:08.608Z,6.68
2023-03-06T21:19:38.446Z,6.28
2023-03-06T21:22:06.871Z,6.13
2023-03-06T21:24:35.336Z,6.45
2023-03-06T21:27:04.308Z,6.93
2023-03-06T21:29:34.111Z,6.43
2023-03-06T21:32:02.754Z,7.30
2023-03-06T21:34:31.271Z,7.10
2023-03-06T21:36:59.737Z,6.57
2023-03-06T21:39:28.228Z,6.47
2023-03-06T21:41:56.663Z,7.85
2023-03-06T21:44:25.196Z,7.85
2023-03-06T21:46:55.010Z,7.07
2023-03-06T21:49:26.149Z,7.03
2023-03-06T21:51:55.184Z,6.07
2023-03-06T21:54:23.876Z,6.50
2023-03-06T21:56:53.338Z,6.78
2023-03-06T21:59:21.828Z,7.13
2023-03-06T22:01:50.255Z,6.35
2023-03-06T22:04:20.109Z,7.20
2023-03-06T22:06:48.575Z,6.50
2023-03-06T22:09:21.708Z,6.50
2023-03-06T22:11:50.132Z,5.13
2023-03-06T22:14:18.553Z,5.82
2023-03-06T22:16:47.222Z,5.70
2023-03-06T22:19:15.714Z,5.35
2023-03-06T22:21:45.528Z,5.95
2023-03-06T22:24:13.953Z,6.00
2023-03-06T22:26:42.371Z,5.40
2023-03-06T22:29:10.816Z,5.60
2023-03-06T22:31:40.354Z,5.97
2023-03-06T22:34:09.061Z,5.63
2023-03-06T22:36:37.531Z,6.03
2023-03-06T22:39:07.445Z,5.95
2023-03-06T22:41:35.874Z,5.57
2023-03-06T22:44:04.379Z,5.70
2023-03-06T22:46:33.560Z,5.68
2023-03-06T22:49:03.317Z,5.65
2023-03-06T22:51:31.895Z,6.20
2023-03-06T22:54:00.640Z,5.80
2023-03-06T22:56:30.581Z,6.22
2023-03-06T22:58:59.311Z,6.13
2023-03-06T23:01:30.391Z,5.40
2023-03-06T23:04:00.871Z,5.95
2023-03-06T23:06:31.668Z,5.13
2023-03-06T23:09:04.140Z,6.20
2023-03-06T23:11:34.815Z,6.00
2023-03-06T23:14:05.658Z,5.03
2023-03-06T23:16:34.631Z,6.18
2023-03-06T23:19:03.048Z,5.70
2023-03-06T23:21:32.276Z,6.32
2023-03-06T23:24:00.940Z,6.97
2023-03-06T23:26:34.404Z,6.47
2023-03-06T23:29:04.324Z,7.75
2023-03-06T23:31:33.309Z,8.03
2023-03-06T23:34:04.283Z,5.35
2023-03-06T23:36:32.908Z,6.03
2023-03-06T23:39:01.332Z,6.18
2023-03-06T23:41:29.864Z,5.95
2023-03-06T23:44:00.623Z,8.40
2023-03-06T23:46:29.268Z,7.03
2023-03-06T23:48:58.033Z,6.70
2023-03-06T23:51:26.475Z,6.32
2023-03-06T23:53:58.541Z,6.00
2023-03-06T23:56:29.165Z,6.33
2023-03-06T23:58:59.043Z,6.30
